Shirpur Airport

IN-0062 · 马哈拉施特拉邦, 印度

使用的METAR站距离机场169 km。
罗盘
风向 的 风向 250° Shirpur Airport 9/27
风: 6 kt, 2 beaufort

6 kt

2 kt
改变
0 ft 2.000 4.000 6.000 8.000 10.000
Cloud Cloud Cloud Cloud
SCT 1.200
Cloud Cloud Cloud Cloud
SCT 2.000
Cloud Cloud Cloud Cloud Cloud Cloud
BKN 2.500
Cloud Cloud Cloud Cloud Cloud Cloud
BKN 10.000
METAR VAAU 230600Z 25006KT 5500 SCT012 SCT020 BKN025 BKN100 25/23 Q1007 NOSIG

METAR Shirpur Airport - IN-0062

Shirpur Airport是,印度中的小机场。 该机场位于纬度21,32407和经度74,95735。 该机场有一条跑道: 9/27. 这个机场没有ICAO代码,我们使用IN-0062作为参考。 机场在Mumbai FIR中。

该航空气象观测是针对Aurangabad Airport在2024年7月23日 11:30, 当地时间进行的。

机场观察

风向为250°,速度为6 kt。

可见度为5,5 km。

有疏云,零星散落的云朵在1.200 ft的高度, 疏云,零星散落的云朵在2.000 ft的高度, 碎云在2.500 ft的高度 和 碎云在10.000 ft的高度。 破损或更高的上限为2.500 ft。

温度和风寒是25 °C。 露点为23 °C,相对湿度为89%。 海平面上的气压为1007 hPa (QNH)。

白天

今天,太阳从06:00升起,在19:13降落。 这适用于Shirpur Airport,世界夏令时可能有所不同。 当地时间与世界标准时间之间的时差为+5 小时 30 分钟。 夏令时目前正在进行中。

公司介绍

我们没有关于这个机场的公司信息。

体会

到Vliegles.nl去找飞行课程,跳伞和其他飞行体验。 浏览页面,了解Shirpur Airport附近所有可用的活动。 你也可以使用搜索功能来寻找你所在地附近的特定飞行课程、跳伞或其他飞行体验。

跑道

Id 标题 侧风 逆风 侧风 %
9/27 092°-272° 2 kt 6 kt 37 %

逆风成分最大的方向会被突出显示,并用于横风计算。 这并不一定意味着这个方向在使用。

乌云

1.200 ft SCT 疏云,零星散落的云朵
2.000 ft SCT 疏云,零星散落的云朵
2.500 ft BKN 碎云
10.000 ft BKN 碎云

温度 & 天气

温度 25 °C
露点 23 °C
相对湿度 89%
Kp-index 0 (0-9)

白天

日出
06:00
中午
12:34
日落
19:08 (7:11)

小工具

你想在你的网站上有一个关于Shirpur Airport的当前航空天气(METAR)的小部件吗?

显示HTML代码
报告变更